Terminal Aerodrome Forecast
Issued by NWS

Home | Current Version | Previous Version | Text Only | Print | Product List | Glossary On
Versions: 1 2 3 4 5 6 7 8 9 10 11 12
000
FTUS44 KLIX 211123
TAFMSY
TAF
KMSY 211123Z 2112/2212 11010KT P6SM SCT030 BKN130
     FM211800 13011KT P6SM SCT030 BKN050
      TEMPO 2118/2121 4SM TSRA BKN020CB
     FM212100 13011KT P6SM SHRA VCTS SCT025CB BKN050
     FM220000 12010G18KT P6SM SCT030 BKN050 PROB30 2200/2206 4SM
      TSRA BKN015CB BKN020
     FM220700 12010KT P6SM SCT020 BKN030 PROB30 2207/2212 2SM TSRA
      BKN015CB=

USA.gov is the U.S. government's official web portal to all federal, state and local government web resources and services.